Time;durP1;ratioP1;P1;durP2;ratioP2;P2;SDS_P1;SDS_P2;PMS_P1;PMS_P2;Temp;Humidity;BMP_temperature;BMP_pressure;BME280_temperature;BME280_humidity;BME280_pressure;Samples;Min_cycle;Max_cycle;Signal;HPM_P1;HPM_P2
2023/01/04 00:01:40;;;;;;;90.05;14.63;;;;;;;3.10;100.00;101489.78;4912483;29;20400;-74
2023/01/04 00:04:05;;;;;;;119.18;16.20;;;;;;;3.07;100.00;101492.09;4904806;29;20103;-76
2023/01/04 00:06:31;;;;;;;76.75;15.95;;;;;;;2.90;100.00;101476.28;4917491;29;20051;-75
2023/01/04 00:08:56;;;;;;;57.67;13.00;;;;;;;2.95;100.00;101491.09;4934544;29;20035;-74
2023/01/04 00:11:23;;;;;;;34.47;13.05;;;;;;;2.70;100.00;101456.72;4934524;29;20036;-76
2023/01/04 00:13:51;;;;;;;30.90;12.75;;;;;;;2.81;100.00;101492.47;4934553;29;20028;-76
2023/01/04 00:16:19;;;;;;;108.35;16.08;;;;;;;2.81;100.00;101487.38;4933232;29;20186;-77
2023/01/04 00:18:45;;;;;;;46.10;11.25;;;;;;;2.71;100.00;101495.91;4934813;29;20148;-75
2023/01/04 00:21:16;;;;;;;167.00;16.88;;;;;;;2.70;100.00;101500.09;4934552;29;20499;-76
2023/01/04 00:23:44;;;;;;;41.03;11.43;;;;;;;2.71;100.00;101501.88;4934316;29;20046;-75
2023/01/04 00:26:12;;;;;;;53.13;12.90;;;;;;;2.43;100.00;101458.75;4934370;29;20039;-75
2023/01/04 00:28:37;;;;;;;31.33;11.77;;;;;;;2.66;100.00;101503.16;4934122;29;20047;-76
2023/01/04 00:31:05;;;;;;;48.65;12.50;;;;;;;2.62;100.00;101502.75;4934436;29;20032;-76
2023/01/04 00:33:32;;;;;;;50.42;12.93;;;;;;;2.66;100.00;101509.91;4916402;29;20542;-75
2023/01/04 00:36:09;;;;;;;46.92;10.65;;;;;;;2.53;100.00;101515.59;4915365;29;20036;-76
2023/01/04 00:38:35;;;;;;;36.13;10.85;;;;;;;2.35;100.00;101523.44;4913815;29;20138;-76
2023/01/04 00:41:02;;;;;;;42.72;13.55;;;;;;;2.35;100.00;101525.09;4914855;29;20141;-76
2023/01/04 00:43:28;;;;;;;20.50;11.52;;;;;;;2.25;100.00;101515.75;4915133;29;20035;-76
2023/01/04 00:49:15;;;;;;;32.97;12.93;;;;;;;1.92;100.00;101523.13;5079333;23;20128;-76
2023/01/04 00:51:41;;;;;;;37.17;14.68;;;;;;;1.83;100.00;101521.41;4913787;29;20040;-76
2023/01/04 00:54:11;;;;;;;28.10;14.07;;;;;;;1.76;100.00;101522.53;4893814;29;20052;-76
2023/01/04 00:56:36;;;;;;;;;;;;;;;1.72;100.00;101523.91;4894528;29;20504;-77
2023/01/04 00:59:03;;;;;;;27.52;13.15;;;;;;;1.64;100.00;101526.53;4894262;29;19971;-77
2023/01/04 01:01:31;;;;;;;28.63;13.75;;;;;;;1.49;100.00;101533.66;4893684;29;20088;-77
2023/01/04 01:03:59;;;;;;;32.15;16.85;;;;;;;1.38;100.00;101518.28;4874257;29;20083;-77
2023/01/04 01:06:26;;;;;;;28.92;14.95;;;;;;;1.22;100.00;101527.84;4893645;29;20143;-76
2023/01/04 01:08:51;;;;;;;28.70;17.83;;;;;;;1.12;100.00;101523.56;4893891;29;20048;-77
2023/01/04 01:11:17;;;;;;;31.40;19.30;;;;;;;1.19;100.00;101518.28;4893488;29;20175;-76
2023/01/04 01:13:43;;;;;;;32.28;18.58;;;;;;;1.07;100.00;101484.09;4893395;29;20045;-76
2023/01/04 01:16:12;;;;;;;31.08;18.60;;;;;;;1.33;100.00;101516.09;4893404;29;20047;-76
2023/01/04 01:18:39;;;;;;;32.37;20.53;;;;;;;1.33;100.00;101521.19;4893519;29;20507;-76
2023/01/04 01:21:07;;;;;;;31.00;18.75;;;;;;;1.41;100.00;101520.25;4893426;29;20146;-76
2023/01/04 01:23:33;;;;;;;31.00;19.73;;;;;;;1.60;100.00;101518.59;4877700;29;20052;-76
2023/01/04 01:26:00;;;;;;;28.65;18.10;;;;;;;1.48;100.00;101486.06;4911624;29;20059;-76
2023/01/04 01:28:26;;;;;;;49.85;20.58;;;;;;;1.47;100.00;101494.44;4914343;29;20173;-77
2023/01/04 01:30:52;;;;;;;32.90;20.23;;;;;;;1.79;100.00;101530.44;4882250;29;20498;-77
2023/01/04 01:33:17;;;;;;;33.55;21.33;;;;;;;1.76;100.00;101520.88;4914770;29;20043;-76
2023/01/04 01:35:43;;;;;;;33.88;19.98;;;;;;;1.78;100.00;101526.09;4914564;29;20028;-76
2023/01/04 01:38:08;;;;;;;33.47;20.85;;;;;;;1.76;100.00;101536.13;4897641;29;20035;-76
2023/01/04 01:40:33;;;;;;;35.40;22.33;;;;;;;1.87;100.00;101529.47;4897601;29;20402;-76
2023/01/04 01:42:59;;;;;;;32.72;21.30;;;;;;;1.68;100.00;101520.94;4914229;29;20040;-76
2023/01/04 01:45:32;;;;;;;38.08;23.25;;;;;;;1.63;100.00;101528.16;4914565;29;20032;-76
2023/01/04 01:48:06;;;;;;;38.40;23.85;;;;;;;1.56;100.00;101528.38;4914277;29;20078;-76
2023/01/04 01:50:46;;;;;;;44.33;25.88;;;;;;;1.49;100.00;101528.56;4897457;29;20115;-76
2023/01/04 01:53:13;;;;;;;54.70;29.98;;;;;;;1.50;100.00;101528.72;4914587;29;20036;-76
2023/01/04 01:55:39;;;;;;;53.58;30.92;;;;;;;1.61;100.00;101524.59;4914358;29;20032;-76
2023/01/04 01:58:07;;;;;;;62.28;36.00;;;;;;;1.66;100.00;101518.25;4913180;29;20043;-76
2023/01/04 02:00:33;;;;;;;58.50;32.40;;;;;;;1.87;100.00;101533.66;4914040;29;20407;-76
2023/01/04 02:03:15;;;;;;;47.75;29.33;;;;;;;1.85;100.00;101532.63;4914151;29;20068;-76
2023/01/04 02:05:43;;;;;;;39.60;24.85;;;;;;;1.78;100.00;101532.09;4913949;29;20091;-76
2023/01/04 02:08:09;;;;;;;42.42;26.65;;;;;;;1.70;100.00;101521.97;4895098;29;20033;-76
2023/01/04 02:10:36;;;;;;;42.95;27.50;;;;;;;1.70;100.00;101520.31;4878625;29;20024;-73
2023/01/04 02:13:08;;;;;;;52.05;29.85;;;;;;;1.71;100.00;101523.78;4878270;29;20112;-76
2023/01/04 02:15:54;;;;;;;50.80;31.60;;;;;;;1.61;100.00;101524.59;4895325;29;20028;-77
2023/01/04 02:18:36;;;;;;;52.33;30.85;;;;;;;1.48;100.00;101481.84;4896561;29;20514;-76
2023/01/04 02:21:09;;;;;;;62.53;30.23;;;;;;;1.72;100.00;101523.00;4894891;29;20092;-75
2023/01/04 02:24:03;;;;;;;55.58;28.38;;;;;;;1.76;100.00;101531.03;4912626;29;20036;-76
2023/01/04 02:27:01;;;;;;;59.33;26.33;;;;;;;1.97;100.00;101525.19;4900547;29;20036;-76
2023/01/04 02:29:42;;;;;;;54.00;23.05;;;;;;;1.96;100.00;101524.28;4840460;29;20109;-76
2023/01/04 02:32:30;;;;;;;46.25;22.25;;;;;;;1.96;100.00;101534.47;4840271;29;20232;-75
2023/01/04 02:35:24;;;;;;;67.50;22.20;;;;;;;2.06;100.00;101521.78;4821701;29;20469;-76
2023/01/04 02:38:16;;;;;;;42.67;19.17;;;;;;;2.21;100.00;101542.63;4806792;29;20066;-75
2023/01/04 02:41:27;;;;;;;49.33;19.67;;;;;;;2.08;100.00;101530.47;4788342;29;20633;-75
2023/01/04 02:46:57;;;;;;;45.97;20.08;;;;;;;1.34;100.00;101437.38;4714621;30;20146;-76
2023/01/04 02:52:07;;;;;;;41.72;21.83;;;;;;;2.06;100.00;101531.97;4714742;30;20056;-76
2023/01/04 02:54:33;;;;;;;46.72;20.92;;;;;;;2.02;100.00;101541.75;4714865;30;20087;-76
2023/01/04 02:57:16;;;;;;;44.30;20.30;;;;;;;2.17;100.00;101549.84;4714761;30;20044;-76
2023/01/04 02:59:47;;;;;;;43.17;22.08;;;;;;;2.18;100.00;101551.66;4714624;30;20128;-75
2023/01/04 03:08:32;;;;;;;58.45;27.10;;;;;;;2.00;100.00;101546.72;4747923;30;20531;-76
2023/01/04 03:12:30;;;;;;;56.78;26.33;;;;;;;2.02;100.00;101529.94;4749737;30;20048;-76
2023/01/04 03:13:59;;;;;;;60.83;26.33;;;;;;;1.95;100.00;101550.50;4749554;30;20044;-76
2023/01/04 03:16:25;;;;;;;62.97;26.38;;;;;;;1.95;100.00;101542.88;4751639;29;20105;-76
2023/01/04 03:18:55;;;;;;;72.50;27.02;;;;;;;1.97;100.00;101554.09;4842151;29;20036;-76
2023/01/04 03:21:21;;;;;;;;;;;;;;;2.03;100.00;101544.47;4900241;29;20475;-76
2023/01/04 03:36:08;;;;;;;42.17;19.58;;;;;;;1.25;100.00;101528.13;4916199;29;20119;-76
2023/01/04 03:50:19;;;;;;;51.72;20.30;;;;;;;1.65;100.00;101531.75;4802960;29;20058;-76
2023/01/04 03:52:47;;;;;;;60.47;23.48;;;;;;;1.59;100.00;101526.09;4787444;29;20074;-76
2023/01/04 03:55:15;;;;;;;67.45;23.80;;;;;;;1.53;100.00;101526.44;4802343;29;20066;-76
2023/01/04 03:57:41;;;;;;;55.28;24.20;;;;;;;1.46;100.00;101531.75;4802335;29;20043;-77
2023/01/04 04:00:11;;;;;;;96.03;26.38;;;;;;;1.34;100.00;101540.81;4802477;29;20094;-76
2023/01/04 04:02:38;;;;;;;49.75;23.30;;;;;;;1.30;100.00;101532.00;4802111;29;20416;-76
2023/01/04 04:10:32;;;;;;;43.80;23.73;;;;;;;1.06;100.00;101531.53;4802446;29;20126;-76
2023/01/04 04:12:57;;;;;;;47.30;22.92;;;;;;;0.96;100.00;101524.69;4802107;29;20038;-76
2023/01/04 04:15:23;;;;;;;48.57;24.97;;;;;;;0.77;100.00;101547.53;4845270;29;20423;-76
2023/01/04 04:17:48;;;;;;;44.07;24.00;;;;;;;0.94;100.00;101550.75;4898297;29;20028;-76
2023/01/04 04:22:41;;;;;;;66.40;26.25;;;;;;;1.13;100.00;101551.69;4875682;29;20053;-76
2023/01/04 04:25:07;;;;;;;57.05;24.42;;;;;;;1.25;100.00;101551.91;4861572;29;20033;-75
2023/01/04 04:27:32;;;;;;;61.70;24.95;;;;;;;1.42;100.00;101556.00;4861450;29;20485;-75
2023/01/04 04:29:58;;;;;;;74.25;24.95;;;;;;;1.55;100.00;101564.75;4878116;29;20032;-75
2023/01/04 04:32:23;;;;;;;85.63;25.02;;;;;;;1.57;100.00;101560.69;4878149;29;20391;-75
2023/01/04 04:34:49;;;;;;;81.55;27.10;;;;;;;1.61;100.00;101572.97;4861443;29;20081;-75
2023/01/04 04:37:14;;;;;;;73.93;25.38;;;;;;;1.68;100.00;101577.81;4860971;29;20036;-75
2023/01/04 04:39:40;;;;;;;78.68;24.23;;;;;;;1.72;100.00;101585.00;4865544;29;20032;-75
2023/01/04 04:42:05;;;;;;;93.75;24.40;;;;;;;1.67;100.00;101583.69;4880494;29;20060;-75
2023/01/04 04:44:33;;;;;;;106.10;21.10;;;;;;;1.59;100.00;101585.53;4877896;29;20033;-75
2023/01/04 04:46:58;;;;;;;65.00;22.00;;;;;;;1.52;100.00;101589.91;4877648;29;20127;-75
2023/01/04 04:49:23;;;;;;;61.92;17.77;;;;;;;1.28;100.00;101553.84;4861222;29;20616;-75
2023/01/04 04:51:49;;;;;;;69.72;19.83;;;;;;;1.49;100.00;101589.66;4877604;29;20035;-75
2023/01/04 04:54:17;;;;;;;79.72;21.45;;;;;;;1.37;100.00;101595.41;4877772;29;20466;-75
2023/01/04 04:56:43;;;;;;;91.17;21.97;;;;;;;1.26;100.00;101601.16;4877558;29;20030;-75
2023/01/04 04:59:08;;;;;;;91.70;25.37;;;;;;;1.12;100.00;101598.22;4877901;29;20476;-75
2023/01/04 05:01:34;;;;;;;90.80;23.60;;;;;;;1.14;100.00;101603.44;4891686;29;20044;-75
2023/01/04 05:03:59;;;;;;;82.45;20.48;;;;;;;1.23;100.00;101614.47;4895196;29;20079;-75
2023/01/04 05:06:25;;;;;;;52.08;20.08;;;;;;;1.27;100.00;101615.66;4896351;29;20033;-76
2023/01/04 05:08:50;;;;;;;83.60;20.20;;;;;;;1.28;100.00;101620.00;4893804;29;20487;-75
2023/01/04 05:12:58;;;;;;;84.35;20.70;;;;;;;1.34;100.00;101622.22;4878073;29;20049;-76
2023/01/04 05:14:01;;;;;;;57.83;21.13;;;;;;;1.39;100.00;101614.25;4893885;29;20067;-76
2023/01/04 05:16:27;;;;;;;55.10;19.20;;;;;;;1.44;100.00;101612.13;4893932;29;20562;-76
2023/01/04 05:18:52;;;;;;;74.43;19.70;;;;;;;1.47;100.00;101621.69;4893858;29;20047;-76
2023/01/04 05:21:18;;;;;;;62.70;19.07;;;;;;;1.39;100.00;101613.34;4884242;29;20067;-76
2023/01/04 05:23:43;;;;;;;62.55;19.25;;;;;;;1.17;100.00;101579.94;4875201;29;20040;-76
2023/01/04 05:26:09;;;;;;;46.33;18.25;;;;;;;1.44;100.00;101615.56;4875201;29;20116;-76
2023/01/04 05:28:34;;;;;;;87.38;18.55;;;;;;;1.56;100.00;101613.25;4875224;29;20393;-76
2023/01/04 05:31:00;;;;;;;62.92;16.95;;;;;;;1.45;100.00;101619.00;4875170;29;20041;-76
2023/01/04 05:33:27;;;;;;;49.58;17.08;;;;;;;1.46;100.00;101618.25;4864136;29;20116;-75
2023/01/04 05:35:54;;;;;;;40.35;15.27;;;;;;;1.48;100.00;101624.38;4893459;29;20502;-76
2023/01/04 05:38:20;;;;;;;74.47;17.98;;;;;;;1.54;100.00;101624.94;4893258;29;20036;-76
2023/01/04 05:40:47;;;;;;;113.22;17.88;;;;;;;1.26;100.00;101594.41;4878876;29;20096;-76
2023/01/04 05:43:13;;;;;;;57.38;16.23;;;;;;;1.48;100.00;101639.63;4895932;29;20115;-77
2023/01/04 05:45:42;;;;;;;89.80;15.77;;;;;;;1.52;100.00;101645.91;4878933;29;20033;-76
2023/01/04 05:48:08;;;;;;;65.25;15.00;;;;;;;1.28;100.00;101638.72;4895746;29;20039;-76
2023/01/04 05:50:33;;;;;;;64.50;15.35;;;;;;;1.17;100.00;101633.34;4895636;29;20032;-76
2023/01/04 05:52:59;;;;;;;56.55;15.45;;;;;;;1.18;100.00;101632.59;4878782;29;20028;-76
2023/01/04 05:55:24;;;;;;;52.83;15.48;;;;;;;1.19;100.00;101629.31;4878890;29;20415;-77
2023/01/04 05:57:50;;;;;;;54.35;15.07;;;;;;;1.13;100.00;101607.66;4897677;29;20040;-77
2023/01/04 06:00:16;;;;;;;68.28;16.40;;;;;;;1.37;100.00;101636.13;4899248;29;20033;-76
2023/01/04 06:02:42;;;;;;;54.00;14.90;;;;;;;1.34;100.00;101635.81;4882576;29;20036;-76
2023/01/04 06:05:09;;;;;;;83.45;17.00;;;;;;;1.33;100.00;101639.13;4899264;29;20032;-76
2023/01/04 06:07:35;;;;;;;60.13;14.52;;;;;;;1.23;100.00;101636.47;4898976;29;20036;-76
2023/01/04 06:10:00;;;;;;;66.13;14.32;;;;;;;1.00;100.00;101604.72;4899147;29;20032;-76
2023/01/04 06:12:26;;;;;;;27.10;13.40;;;;;;;1.25;100.00;101638.41;4899123;29;20037;-76
2023/01/04 06:14:51;;;;;;;61.00;14.70;;;;;;;1.28;100.00;101635.25;4899232;29;20480;-76
2023/01/04 06:17:17;;;;;;;52.33;14.67;;;;;;;1.28;100.00;101635.25;4877389;29;20057;-76
2023/01/04 06:19:42;;;;;;;57.43;15.13;;;;;;;1.22;100.00;101624.50;4853952;29;20045;-76
2023/01/04 06:22:08;;;;;;;58.50;13.88;;;;;;;1.37;100.00;101642.84;4840042;29;20107;-76
2023/01/04 06:24:34;;;;;;;53.50;15.10;;;;;;;1.34;100.00;101647.66;4844236;29;20053;-76
2023/01/04 06:27:00;;;;;;;59.28;12.60;;;;;;;1.33;100.00;101644.19;4858797;29;20045;-76
2023/01/04 06:29:25;;;;;;;56.72;13.57;;;;;;;1.35;100.00;101649.47;4843276;29;20066;-76
2023/01/04 06:31:51;;;;;;;51.08;14.73;;;;;;;1.30;100.00;101638.84;4858859;29;20041;-76
2023/01/04 06:34:16;;;;;;;39.97;14.07;;;;;;;1.22;100.00;101643.22;4858856;29;20047;-76
2023/01/04 06:36:42;;;;;;;66.32;15.13;;;;;;;1.26;100.00;101652.94;4858570;29;20435;-76
2023/01/04 06:39:08;;;;;;;67.63;15.68;;;;;;;1.17;100.00;101656.25;4858618;29;20519;-76
2023/01/04 06:41:34;;;;;;;57.55;14.82;;;;;;;0.97;100.00;101652.72;4843061;29;20097;-76
2023/01/04 06:43:59;;;;;;;61.43;14.77;;;;;;;0.88;100.00;101660.38;4858531;29;20045;-76
2023/01/04 06:46:25;;;;;;;49.77;14.27;;;;;;;0.85;100.00;101666.81;4858499;29;20053;-76
2023/01/04 06:48:52;;;;;;;39.33;14.47;;;;;;;0.78;100.00;101668.75;4872075;29;20049;-75
2023/01/04 06:51:19;;;;;;;51.03;15.30;;;;;;;0.77;100.00;101674.63;4861421;29;20064;-76
2023/01/04 06:53:44;;;;;;;51.63;15.03;;;;;;;0.76;100.00;101675.38;4877011;29;20053;-76
2023/01/04 06:56:09;;;;;;;44.60;14.53;;;;;;;0.77;100.00;101678.78;4876670;29;20049;-76
2023/01/04 06:58:35;;;;;;;46.43;14.60;;;;;;;0.74;100.00;101679.41;4877001;29;20068;-76
2023/01/04 07:01:01;;;;;;;44.43;14.20;;;;;;;0.74;100.00;101676.84;4877281;29;20045;-76
2023/01/04 07:03:26;;;;;;;68.03;16.37;;;;;;;0.66;100.00;101672.72;4879323;29;20415;-76
2023/01/04 07:05:52;;;;;;;37.97;15.93;;;;;;;0.63;100.00;101678.34;4879269;29;20085;-76
2023/01/04 07:08:18;;;;;;;66.57;16.47;;;;;;;0.64;100.00;101686.91;4863770;29;20088;-76
2023/01/04 07:10:43;;;;;;;35.93;14.40;;;;;;;0.41;100.00;101685.56;4881129;29;20029;-76
2023/01/04 07:13:10;;;;;;;34.67;13.67;;;;;;;0.17;100.00;101668.81;4897717;29;20440;-76
2023/01/04 07:15:35;;;;;;;46.57;13.13;;;;;;;0.05;100.00;101658.38;4897578;29;20112;-76
2023/01/04 07:18:01;;;;;;;29.77;13.53;;;;;;;0.30;100.00;101694.69;4897798;29;20037;-76
2023/01/04 07:20:26;;;;;;;28.13;14.13;;;;;;;0.31;100.00;101680.31;4879799;29;20443;-76
2023/01/04 07:22:52;;;;;;;37.87;13.57;;;;;;;0.46;100.00;101686.00;4872178;29;20040;-76
2023/01/04 07:25:19;;;;;;;48.97;15.03;;;;;;;0.53;100.00;101690.06;4890207;29;20039;-76
2023/01/04 07:27:49;;;;;;;38.40;13.60;;;;;;;0.27;100.00;101652.84;4897740;29;20068;-75
2023/01/04 07:30:15;;;;;;;43.10;14.27;;;;;;;0.47;100.00;101693.78;4880676;29;20024;-75
2023/01/04 07:32:40;;;;;;;35.37;12.70;;;;;;;0.43;100.00;101696.75;4897238;29;20040;-75
2023/01/04 07:35:06;;;;;;;40.93;13.10;;;;;;;0.25;100.00;101674.66;4897035;29;20032;-75
2023/01/04 07:37:31;;;;;;;28.43;13.77;;;;;;;0.20;100.00;101658.06;4875976;29;20045;-75
2023/01/04 07:39:57;;;;;;;33.50;13.97;;;;;;;0.12;100.00;101622.66;4861002;29;20069;-75
2023/01/04 07:42:22;;;;;;;33.87;13.43;;;;;;;0.76;100.00;101699.88;4872986;29;20068;-75
2023/01/04 07:44:48;;;;;;;29.23;14.00;;;;;;;0.87;100.00;101706.00;4861877;29;20476;-76
2023/01/04 07:47:13;;;;;;;29.30;13.77;;;;;;;0.95;100.00;101717.81;4868003;29;20064;-75
2023/01/04 07:49:38;;;;;;;39.07;15.53;;;;;;;0.74;100.00;101684.47;4875831;29;20053;-76
2023/01/04 07:52:04;;;;;;;44.57;14.57;;;;;;;0.86;100.00;101715.28;4873048;29;20090;-76
2023/01/04 07:54:30;;;;;;;33.43;15.03;;;;;;;0.76;100.00;101717.66;4865408;29;20116;-76
2023/01/04 07:56:56;;;;;;;34.37;15.00;;;;;;;0.77;100.00;101710.22;4866451;29;20127;-76
2023/01/04 07:59:21;;;;;;;35.83;16.20;;;;;;;0.93;100.00;101707.47;4866323;29;20125;-76
2023/01/04 08:01:49;;;;;;;33.47;15.57;;;;;;;1.05;100.00;101717.94;4865379;29;20400;-77
2023/01/04 08:04:15;;;;;;;31.30;14.67;;;;;;;1.15;100.00;101728.97;4868716;29;20068;-76
2023/01/04 08:06:42;;;;;;;37.87;14.57;;;;;;;1.13;100.00;101716.09;4847686;29;20040;-76
2023/01/04 08:09:10;;;;;;;32.00;15.05;;;;;;;1.15;100.00;101728.97;4882775;29;20045;-77
2023/01/04 08:11:36;;;;;;;40.08;17.33;;;;;;;1.24;100.00;101734.94;4886377;29;20417;-76
2023/01/04 08:14:01;;;;;;;35.58;16.10;;;;;;;1.31;100.00;101710.97;4870376;29;20031;-78
2023/01/04 08:16:33;;;;;;;44.10;16.10;;;;;;;1.09;100.00;101689.47;4871034;29;20104;-77
2023/01/04 08:19:05;;;;;;;34.15;15.85;;;;;;;1.35;100.00;101724.13;4886643;29;20060;-78
2023/01/04 08:21:33;;;;;;;44.65;16.27;;;;;;;1.41;100.00;101714.53;4868102;29;20448;-77
2023/01/04 08:23:59;;;;;;;42.75;17.08;;;;;;;1.49;100.00;101727.06;4887252;29;20029;-76
2023/01/04 08:26:25;;;;;;;35.25;17.05;;;;;;;1.57;100.00;101721.94;4885941;29;20055;-76
2023/01/04 08:28:51;;;;;;;67.85;19.08;;;;;;;1.67;100.00;101723.72;4883511;29;20465;-77
2023/01/04 08:31:19;;;;;;;44.00;19.73;;;;;;;1.71;100.00;101727.44;4877091;29;20033;-79
2023/01/04 08:33:45;;;;;;;41.78;19.52;;;;;;;1.66;100.00;101719.38;4887432;29;20037;-78
2023/01/04 08:36:23;;;;;;;48.30;19.15;;;;;;;1.50;100.00;101672.88;4868639;29;20037;-77
2023/01/04 08:38:50;;;;;;;41.28;18.92;;;;;;;1.71;100.00;101715.59;4885510;29;20064;-77
2023/01/04 08:41:25;;;;;;;41.42;19.63;;;;;;;1.80;100.00;101696.84;5066776;27;20409;-77
2023/01/04 08:43:51;;;;;;;45.35;21.08;;;;;;;1.95;100.00;101703.31;5034429;28;20025;-75
2023/01/04 08:46:16;;;;;;;49.22;22.48;;;;;;;2.13;100.00;101710.84;5036702;28;20040;-75
2023/01/04 08:48:42;;;;;;;51.70;21.23;;;;;;;1.98;100.00;101674.69;5045434;28;20116;-76
2023/01/04 08:51:10;;;;;;;52.92;21.20;;;;;;;1.97;100.00;101694.19;5046441;28;20021;-76
2023/01/04 08:53:36;;;;;;;47.65;21.40;;;;;;;1.99;100.00;101691.75;5046415;28;20115;-79
2023/01/04 08:56:02;;;;;;;55.95;23.25;;;;;;;2.10;100.00;101697.06;5044347;28;20112;-77
2023/01/04 08:58:29;;;;;;;56.10;24.92;;;;;;;2.15;100.00;101692.41;5044801;28;20036;-79
2023/01/04 09:01:09;;;;;;;55.92;26.52;;;;;;;2.18;100.00;101676.47;5045705;28;20533;-77
2023/01/04 09:03:35;;;;;;;62.97;27.20;;;;;;;2.30;100.00;101684.34;5038642;28;20478;-77
2023/01/04 09:06:10;;;;;;;66.45;28.30;;;;;;;2.33;100.00;101697.34;5040903;28;20411;-76
2023/01/04 09:08:37;;;;;;;54.72;26.50;;;;;;;2.41;100.00;101693.84;5045061;28;20021;-74
2023/01/04 09:11:07;;;;;;;56.33;26.60;;;;;;;2.38;100.00;101697.03;5040273;28;20507;-72
2023/01/04 09:13:34;;;;;;;61.30;30.45;;;;;;;2.39;100.00;101682.63;5041347;28;20111;-75
2023/01/04 09:16:01;;;;;;;65.68;33.40;;;;;;;2.58;100.00;101687.72;5027333;28;20466;-77
2023/01/04 09:18:26;;;;;;;53.38;30.48;;;;;;;2.70;100.00;101685.34;5029464;28;20018;-75
2023/01/04 09:20:52;;;;;;;61.47;30.73;;;;;;;2.70;100.00;101678.56;5026872;28;20036;-74
2023/01/04 09:23:17;;;;;;;59.03;32.47;;;;;;;2.57;100.00;101691.91;5034782;28;20033;-71
2023/01/04 09:25:42;;;;;;;67.32;29.55;;;;;;;2.46;100.00;101702.81;5035276;28;20073;-72
2023/01/04 09:28:08;;;;;;;58.95;32.67;;;;;;;2.61;100.00;101695.63;5030167;28;20079;-70
2023/01/04 09:30:34;;;;;;;63.08;32.60;;;;;;;2.62;100.00;101683.75;5032994;28;20495;-75
2023/01/04 09:32:59;;;;;;;69.45;32.72;;;;;;;2.65;100.00;101667.06;5036573;28;20049;-75
2023/01/04 09:35:24;;;;;;;65.60;31.23;;;;;;;2.43;100.00;101654.13;5025750;28;20508;-76
2023/01/04 09:37:50;;;;;;;66.63;30.90;;;;;;;2.64;100.00;101669.50;5024687;28;20400;-75
2023/01/04 09:40:25;;;;;;;68.32;30.58;;;;;;;2.83;100.00;101664.34;5024984;28;20050;-75
2023/01/04 09:42:51;;;;;;;55.05;28.80;;;;;;;3.02;100.00;101660.09;5025185;28;20076;-75
2023/01/04 09:45:23;;;;;;;62.78;29.23;;;;;;;2.96;100.00;101611.09;5025158;28;20034;-75
2023/01/04 09:48:03;;;;;;;57.05;30.10;;;;;;;3.46;100.00;101651.00;5025313;28;20048;-75
2023/01/04 09:50:35;;;;;;;48.17;28.38;;;;;;;3.69;100.00;101650.41;5040796;28;20033;-75
2023/01/04 09:53:40;;;;;;;60.92;26.80;;;;;;;3.74;100.00;101659.34;5012115;28;20769;-72
2023/01/04 09:56:24;;;;;;;60.88;29.27;;;;;;;3.88;100.00;101647.72;5029428;28;20037;-73
2023/01/04 09:58:51;;;;;;;61.83;29.77;;;;;;;4.02;100.00;101647.16;5028680;28;20045;-72
2023/01/04 10:01:48;;;;;;;72.35;30.90;;;;;;;4.23;100.00;101651.38;5029686;28;20481;-73
2023/01/04 10:04:22;;;;;;;55.00;27.55;;;;;;;4.47;100.00;101657.56;4988248;28;20045;-76
2023/01/04 10:06:48;;;;;;;54.30;28.67;;;;;;;4.45;100.00;101630.97;4988274;28;20042;-73
2023/01/04 10:09:16;;;;;;;52.42;27.65;;;;;;;4.67;100.00;101643.81;4982581;28;20051;-77
2023/01/04 10:12:01;;;;;;;54.55;30.40;;;;;;;4.79;100.00;101636.25;4966362;28;20082;-76
2023/01/04 10:14:59;;;;;;;56.40;29.05;;;;;;;5.05;100.00;101639.94;4980979;28;20084;-78
2023/01/04 10:17:33;;;;;;;40.63;25.05;;;;;;;5.09;100.00;101632.63;4989474;28;20041;-77
2023/01/04 10:20:15;;;;;;;42.92;24.60;;;;;;;5.30;100.00;101629.94;4973651;28;20536;-75
2023/01/04 10:22:55;;;;;;;49.60;26.90;;;;;;;5.44;100.00;101631.00;4986701;28;20058;-78
2023/01/04 10:25:34;;;;;;;41.22;24.85;;;;;;;5.50;100.00;101632.34;4990245;28;20165;-77
2023/01/04 10:28:26;;;;;;;47.50;25.55;;;;;;;5.69;100.00;101635.44;4990177;28;20038;-78
2023/01/04 10:31:01;;;;;;;54.35;26.52;;;;;;;5.81;100.00;101633.78;4967632;28;20043;-77
2023/01/04 10:33:31;;;;;;;47.58;26.63;;;;;;;5.95;100.00;101632.25;4970539;28;20030;-78
2023/01/04 10:35:57;;;;;;;57.75;28.27;;;;;;;6.01;100.00;101627.63;4967799;28;20045;-78
2023/01/04 10:38:26;;;;;;;51.17;25.33;;;;;;;6.11;100.00;101624.94;4965980;28;20441;-77
2023/01/04 10:40:54;;;;;;;69.67;27.37;;;;;;;6.20;100.00;101617.03;4987080;28;20060;-78
2023/01/04 10:43:30;;;;;;;59.03;26.90;;;;;;;6.35;100.00;101618.94;5029478;28;20287;-79
2023/01/04 10:46:06;;;;;;;65.68;28.23;;;;;;;6.45;100.00;101603.44;5030858;28;20044;-79
2023/01/04 10:49:00;;;;;;;66.40;29.73;;;;;;;6.56;100.00;101606.78;5030574;28;20503;-77
2023/01/04 10:51:39;;;;;;;63.60;29.70;;;;;;;6.51;100.00;101595.28;5029120;28;20034;-76
2023/01/04 10:54:18;;;;;;;78.63;31.53;;;;;;;6.67;100.00;101597.25;5036869;28;20029;-79
2023/01/04 10:56:54;;;;;;;83.10;32.83;;;;;;;6.56;100.00;101542.63;5028611;28;20037;-77
2023/01/04 11:00:02;;;;;;;79.53;33.40;;;;;;;6.93;100.00;101592.28;5028009;28;20037;-80
2023/01/04 11:02:47;;;;;;;79.40;33.45;;;;;;;6.74;100.00;101549.06;5008172;28;20038;-79
2023/01/04 11:05:12;;;;;;;74.88;33.30;;;;;;;6.97;100.00;101586.56;5008485;28;20038;-78
2023/01/04 11:08:07;;;;;;;80.60;32.53;;;;;;;6.99;100.00;101580.66;4979976;28;20536;-78
2023/01/04 11:10:45;;;;;;;79.38;33.38;;;;;;;7.07;100.00;101580.41;4993749;28;20527;-77
2023/01/04 11:13:11;;;;;;;68.35;31.23;;;;;;;7.17;100.00;101575.91;4984953;28;20041;-77
2023/01/04 11:15:37;;;;;;;73.60;29.25;;;;;;;7.28;100.00;101577.53;4978590;28;20069;-77
2023/01/04 11:18:06;;;;;;;77.65;29.77;;;;;;;7.34;100.00;101574.47;4991399;28;20038;-77
2023/01/04 11:20:31;;;;;;;64.45;26.13;;;;;;;7.47;100.00;101560.78;5008610;28;20093;-77
2023/01/04 11:23:03;;;;;;;69.70;26.58;;;;;;;7.53;100.00;101572.38;4992036;28;20034;-77
2023/01/04 11:25:36;;;;;;;60.22;26.73;;;;;;;7.66;100.00;101578.31;4991234;28;20639;-77
2023/01/04 11:28:26;;;;;;;60.00;27.08;;;;;;;7.78;100.00;101571.44;4992125;28;20035;-77
2023/01/04 11:31:09;;;;;;;66.65;27.20;;;;;;;7.91;100.00;101573.13;4965529;28;20177;-75
2023/01/04 11:33:58;;;;;;;71.90;26.70;;;;;;;7.99;100.00;101565.91;4979355;28;20045;-77
2023/01/04 11:36:42;;;;;;;79.22;27.65;;;;;;;8.04;100.00;101572.25;5006918;28;20557;-77
2023/01/04 11:39:25;;;;;;;64.43;26.00;;;;;;;7.95;100.00;101536.53;5013418;28;20045;-77
2023/01/04 11:41:58;;;;;;;70.20;26.17;;;;;;;8.12;100.00;101554.75;5027609;28;20040;-77
2023/01/04 11:44:25;;;;;;;77.43;27.27;;;;;;;8.21;100.00;101560.47;5028029;28;20492;-77
2023/01/04 11:47:20;;;;;;;80.50;28.08;;;;;;;8.30;100.00;101555.91;5028018;28;20037;-77
2023/01/04 11:49:46;;;;;;;77.35;27.27;;;;;;;8.42;100.00;101561.84;5011303;28;20029;-76
2023/01/04 11:52:32;;;;;;;89.65;28.95;;;;;;;8.49;100.00;101558.00;5028798;28;20140;-77
2023/01/04 11:55:24;;;;;;;72.35;27.85;;;;;;;8.54;100.00;101554.03;5017694;28;20037;-77
2023/01/04 11:58:07;;;;;;;78.57;28.58;;;;;;;8.55;100.00;101558.38;5028243;28;20029;-76
2023/01/04 12:00:33;;;;;;;79.20;29.33;;;;;;;8.58;100.00;101547.38;5028139;28;20033;-77
2023/01/04 12:03:16;;;;;;;61.95;27.98;;;;;;;8.72;100.00;101546.56;5028330;28;20033;-76
2023/01/04 12:05:42;;;;;;;65.63;28.27;;;;;;;8.84;100.00;101551.56;5030111;28;20478;-77
2023/01/04 12:08:31;;;;;;;67.43;28.10;;;;;;;8.76;100.00;101550.22;5030675;28;20029;-76
2023/01/04 12:10:58;;;;;;;74.55;27.27;;;;;;;8.79;100.00;101546.94;5030791;28;20116;-79